createdAt,value
2023-05-19T00:06:31.674Z,5.10
2023-05-19T00:11:36.421Z,5.50
2023-05-19T00:16:38.770Z,5.40
2023-05-19T00:21:40.604Z,6.00
2023-05-19T00:26:42.426Z,5.60
2023-05-19T00:31:44.743Z,6.10
2023-05-19T00:36:46.869Z,5.90
2023-05-19T00:41:49.036Z,6.50
2023-05-19T00:46:50.860Z,6.60
2023-05-19T00:51:53.171Z,7.80
2023-05-19T00:56:57.040Z,8.10
2023-05-19T01:01:58.840Z,8.70
2023-05-19T01:07:00.861Z,8.10
2023-05-19T01:12:02.786Z,12.30
2023-05-19T01:17:17.279Z,10.80
2023-05-19T01:22:54.918Z,11.30
2023-05-19T01:28:21.500Z,13.50
2023-05-19T01:33:24.596Z,10.90
2023-05-19T01:38:29.422Z,11.40
2023-05-19T01:43:33.730Z,10.60
2023-05-19T01:48:36.628Z,12.10
2023-05-19T01:53:38.495Z,11.90
2023-05-19T01:58:47.205Z,12.10
2023-05-19T02:09:12.098Z,12.50
2023-05-19T02:14:19.911Z,12.80
2023-05-19T02:19:28.098Z,12.50
2023-05-19T02:24:30.104Z,13.80
2023-05-19T02:29:34.052Z,12.00
2023-05-19T02:34:35.762Z,11.40
2023-05-19T02:39:40.037Z,11.60
2023-05-19T02:44:41.756Z,14.00
2023-05-19T02:49:44.275Z,14.30
2023-05-19T02:54:46.228Z,13.50
2023-05-19T02:59:48.061Z,13.80
2023-05-19T03:04:49.924Z,13.40
2023-05-19T03:09:52.663Z,12.50
2023-05-19T03:19:56.063Z,15.00
2023-05-19T03:24:58.557Z,13.80
2023-05-19T03:30:00.337Z,11.90
2023-05-19T03:35:02.100Z,12.10
2023-05-19T03:40:05.728Z,10.10
2023-05-19T03:45:09.949Z,11.20
2023-05-19T03:50:11.836Z,11.40
2023-05-19T03:55:37.428Z,12.00
2023-05-19T04:05:40.943Z,11.10
2023-05-19T04:10:42.767Z,11.70
2023-05-19T04:15:44.703Z,11.40
2023-05-19T04:20:46.650Z,11.30
2023-05-19T04:25:49.631Z,10.10
2023-05-19T04:30:51.614Z,10.30
2023-05-19T04:35:53.702Z,8.40
2023-05-19T04:40:56.372Z,10.50
2023-05-19T04:45:58.917Z,11.60
2023-05-19T04:51:03.972Z,11.40
2023-05-19T04:56:06.392Z,11.50
2023-05-19T05:01:09.690Z,11.60
2023-05-19T05:06:12.109Z,10.40
2023-05-19T05:11:14.281Z,11.30
2023-05-19T05:21:18.827Z,12.10
2023-05-19T05:26:23.287Z,11.30
2023-05-19T05:31:27.069Z,11.20
2023-05-19T05:36:29.048Z,11.80
2023-05-19T05:41:35.229Z,10.50
2023-05-19T05:46:40.561Z,9.80
2023-05-19T05:51:48.432Z,10.40
2023-05-19T05:56:57.028Z,9.00
2023-05-19T06:01:59.601Z,9.40
2023-05-19T06:12:07.990Z,9.40
2023-05-19T06:17:14.390Z,7.00
2023-05-19T06:22:16.206Z,7.90
2023-05-19T06:27:18.950Z,7.40
2023-05-19T06:32:21.449Z,6.70
2023-05-19T06:42:25.787Z,5.90
2023-05-19T06:47:42.524Z,6.10
2023-05-19T06:52:44.706Z,5.30
2023-05-19T06:57:47.744Z,6.40
2023-05-19T07:02:50.107Z,5.50
2023-05-19T07:12:58.156Z,5.10
2023-05-19T07:18:02.303Z,5.30
2023-05-19T07:23:05.426Z,6.70
2023-05-19T07:28:07.513Z,6.10
2023-05-19T07:33:09.219Z,7.80
2023-05-19T07:38:11.480Z,3.60
2023-05-19T07:43:13.307Z,5.70
2023-05-19T07:48:15.073Z,6.90
2023-05-19T07:53:16.962Z,5.70
2023-05-19T07:58:19.923Z,6.20
2023-05-19T08:03:23.628Z,6.20
2023-05-19T08:08:25.672Z,6.40
2023-05-19T08:13:27.596Z,6.70
2023-05-19T08:18:29.477Z,5.50
2023-05-19T08:23:31.957Z,5.80
2023-05-19T08:28:33.952Z,6.10
2023-05-19T08:33:35.801Z,7.70
2023-05-19T08:38:37.644Z,6.70
2023-05-19T08:43:39.977Z,7.00
2023-05-19T08:48:44.293Z,8.20
2023-05-19T08:53:53.757Z,6.00
2023-05-19T08:59:00.291Z,6.10
2023-05-19T09:04:03.440Z,7.50
2023-05-19T09:09:06.356Z,7.20
2023-05-19T09:14:08.177Z,8.20
2023-05-19T09:19:17.203Z,8.40
2023-05-19T09:24:19.154Z,6.50
2023-05-19T09:29:20.918Z,7.90
2023-05-19T09:34:24.765Z,6.50
2023-05-19T09:39:26.862Z,7.50
2023-05-19T09:49:34.585Z,6.30
2023-05-19T09:54:37.390Z,8.10
2023-05-19T09:59:40.833Z,8.60
2023-05-19T10:04:43.093Z,7.90
2023-05-19T10:09:46.116Z,7.40
2023-05-19T10:14:48.750Z,8.10
2023-05-19T10:19:52.560Z,7.70
2023-05-19T10:24:56.044Z,9.10
2023-05-19T10:30:02.569Z,8.00
2023-05-19T10:35:26.221Z,8.70
2023-05-19T10:40:33.233Z,10.20
2023-05-19T10:45:45.398Z,10.20
2023-05-19T10:50:47.650Z,11.30
2023-05-19T10:55:56.480Z,11.50
2023-05-19T11:01:01.604Z,10.30
2023-05-19T11:06:38.765Z,9.00
2023-05-19T11:11:52.214Z,9.10
2023-05-19T11:16:58.159Z,9.60
2023-05-19T11:22:13.210Z,8.50
2023-05-19T11:27:19.334Z,8.90
2023-05-19T11:32:22.789Z,10.60
2023-05-19T11:37:24.626Z,10.90
2023-05-19T11:47:28.351Z,8.50
2023-05-19T11:52:31.009Z,9.80
2023-05-19T11:57:32.902Z,10.40
2023-05-19T12:02:36.335Z,10.70
2023-05-19T12:07:39.514Z,7.00
2023-05-19T12:12:45.113Z,8.80
2023-05-19T12:17:50.407Z,10.50
2023-05-19T12:22:53.177Z,9.70
2023-05-19T12:27:59.483Z,8.20
2023-05-19T12:33:02.118Z,8.70
2023-05-19T12:38:07.533Z,10.00
2023-05-19T12:43:20.140Z,9.60
2023-05-19T12:48:22.967Z,17.80
2023-05-19T12:53:27.925Z,9.70
2023-05-19T12:58:34.466Z,9.90
2023-05-19T13:03:42.950Z,9.00
2023-05-19T13:08:47.309Z,10.80
2023-05-19T13:13:49.068Z,10.60
2023-05-19T13:18:51.565Z,11.00
2023-05-19T13:23:53.407Z,11.40
2023-05-19T13:33:57.047Z,10.80
2023-05-19T13:44:00.818Z,10.20
2023-05-19T13:49:02.674Z,12.40
2023-05-19T13:54:05.144Z,10.50
2023-05-19T13:59:07.193Z,11.30
2023-05-19T14:04:10.582Z,11.00
2023-05-19T14:09:13.192Z,13.60
2023-05-19T14:14:15.104Z,11.00
2023-05-19T14:19:17.388Z,11.40
2023-05-19T14:24:20.190Z,10.90
2023-05-19T14:29:21.911Z,11.30
2023-05-19T14:39:25.596Z,10.60
2023-05-19T14:44:32.867Z,12.70
2023-05-19T14:49:34.717Z,12.00
2023-05-19T14:54:36.568Z,12.90
2023-05-19T14:59:39.161Z,10.00
2023-05-19T15:04:41.189Z,12.70
2023-05-19T15:09:42.938Z,12.70
2023-05-19T15:14:44.631Z,10.00
2023-05-19T15:19:46.698Z,12.00
2023-05-19T15:24:48.498Z,12.30
2023-05-19T15:29:50.241Z,12.70
2023-05-19T15:34:52.041Z,10.00
2023-05-19T15:39:55.056Z,11.20
2023-05-19T15:44:57.122Z,12.70
2023-05-19T15:55:00.637Z,12.00
2023-05-19T16:00:02.449Z,9.90
2023-05-19T16:05:07.882Z,11.50
2023-05-19T16:10:09.891Z,13.50
2023-05-19T16:15:11.664Z,11.40
2023-05-19T16:20:13.607Z,10.60
2023-05-19T16:25:15.484Z,14.30
2023-05-19T16:30:17.300Z,14.70
2023-05-19T16:35:19.574Z,14.50
2023-05-19T16:40:21.311Z,13.50
2023-05-19T16:45:23.136Z,14.00
2023-05-19T16:50:24.894Z,14.50
2023-05-19T16:55:26.930Z,11.00
2023-05-19T17:00:29.887Z,13.20
2023-05-19T17:05:32.053Z,12.70
2023-05-19T17:15:36.452Z,13.40
2023-05-19T17:20:38.223Z,14.60
2023-05-19T17:25:39.982Z,12.40
2023-05-19T17:30:42.342Z,15.40
2023-05-19T17:35:44.254Z,16.00
2023-05-19T17:40:46.018Z,13.30
2023-05-19T17:45:47.746Z,14.30
2023-05-19T17:50:49.525Z,13.50
2023-05-19T17:55:56.044Z,13.60
2023-05-19T18:00:57.983Z,14.80
2023-05-19T18:06:00.599Z,13.60
2023-05-19T18:11:02.930Z,18.40
2023-05-19T18:16:04.818Z,16.20
2023-05-19T18:21:06.733Z,14.00
2023-05-19T18:26:08.490Z,16.20
2023-05-19T18:31:15.786Z,15.70
2023-05-19T18:36:17.659Z,15.10
2023-05-19T18:41:19.495Z,16.90
2023-05-19T18:46:21.493Z,15.10
2023-05-19T18:51:23.545Z,13.00
2023-05-19T18:56:27.254Z,14.40
2023-05-19T19:01:29.080Z,15.70
2023-05-19T19:06:31.285Z,13.00
2023-05-19T19:11:33.067Z,14.80
2023-05-19T19:16:35.122Z,13.80
2023-05-19T19:21:37.088Z,13.80
2023-05-19T19:26:38.880Z,15.30
2023-05-19T19:31:40.746Z,14.30
2023-05-19T19:36:43.851Z,15.30
2023-05-19T19:41:45.611Z,14.30
2023-05-19T19:46:47.344Z,13.40
2023-05-19T19:51:49.655Z,15.00
2023-05-19T19:56:51.425Z,13.20
2023-05-19T20:01:53.399Z,12.40
2023-05-19T20:06:55.382Z,14.40
2023-05-19T20:11:57.207Z,13.80
2023-05-19T20:16:59.013Z,14.00
2023-05-19T20:22:02.718Z,13.80
2023-05-19T20:27:04.559Z,13.90
2023-05-19T20:32:06.900Z,13.00
2023-05-19T20:37:08.759Z,13.70
2023-05-19T20:42:11.258Z,12.20
2023-05-19T20:47:13.114Z,14.40
2023-05-19T20:52:18.639Z,14.30
2023-05-19T20:57:21.012Z,14.00
2023-05-19T21:02:22.773Z,14.90
2023-05-19T21:07:25.089Z,14.90
2023-05-19T21:12:33.948Z,13.20
2023-05-19T21:17:41.733Z,14.50
2023-05-19T21:22:43.959Z,13.60
2023-05-19T21:27:46.464Z,13.40
2023-05-19T21:32:48.265Z,15.50
2023-05-19T21:37:50.295Z,14.90
2023-05-19T21:42:54.515Z,14.40
2023-05-19T21:47:58.626Z,15.20
2023-05-19T21:53:02.756Z,14.10
2023-05-19T21:58:04.612Z,14.10
2023-05-19T22:03:06.712Z,14.50
2023-05-19T22:08:08.609Z,12.10
2023-05-19T22:13:10.752Z,12.80
2023-05-19T22:18:12.624Z,14.80
2023-05-19T22:23:14.552Z,12.30
2023-05-19T22:28:16.450Z,14.80
2023-05-19T22:33:18.227Z,13.20
2023-05-19T22:38:19.974Z,13.70
2023-05-19T22:43:21.693Z,14.80
2023-05-19T22:48:23.368Z,15.70
2023-05-19T22:53:25.281Z,14.50
2023-05-19T22:58:27.051Z,14.30
2023-05-19T23:03:28.751Z,14.20
2023-05-19T23:08:31.469Z,15.30
2023-05-19T23:13:53.704Z,14.80
2023-05-19T23:18:55.543Z,13.60
2023-05-19T23:23:57.500Z,14.50
2023-05-19T23:28:59.299Z,15.20
2023-05-19T23:34:01.289Z,15.70
2023-05-19T23:39:06.447Z,15.50
2023-05-19T23:44:09.188Z,16.10
2023-05-19T23:49:12.394Z,15.70
2023-05-19T23:54:14.094Z,13.40
2023-05-19T23:59:15.830Z,14.00
